sensor_id;sensor_type;location;lat;lon;timestamp;pressure;altitude;pressure_sealevel;temperature;humidity
69239;BME280;56349;51.816;-0.026;2022-10-10T00:00:43;100538.24;;;21.40;37.77
69239;BME280;56349;51.816;-0.026;2022-10-10T00:03:08;100532.96;;;21.38;37.81
69239;BME280;56349;51.816;-0.026;2022-10-10T00:05:32;100532.64;;;21.11;37.82
69239;BME280;56349;51.816;-0.026;2022-10-10T00:07:57;100528.92;;;21.09;37.83
69239;BME280;56349;51.816;-0.026;2022-10-10T00:10:23;100530.45;;;21.07;37.86
69239;BME280;56349;51.816;-0.026;2022-10-10T00:12:48;100528.93;;;21.03;37.90
69239;BME280;56349;51.816;-0.026;2022-10-10T00:15:14;100529.71;;;21.26;37.95
69239;BME280;56349;51.816;-0.026;2022-10-10T00:17:40;100526.54;;;21.22;38.01
69239;BME280;56349;51.816;-0.026;2022-10-10T00:20:06;100527.81;;;20.93;38.04
69239;BME280;56349;51.816;-0.026;2022-10-10T00:22:31;100524.86;;;21.16;38.09
69239;BME280;56349;51.816;-0.026;2022-10-10T00:24:56;100524.54;;;21.15;38.12
69239;BME280;56349;51.816;-0.026;2022-10-10T00:27:23;100517.83;;;21.12;38.15
69239;BME280;56349;51.816;-0.026;2022-10-10T00:29:47;100513.50;;;20.83;38.18
69239;BME280;56349;51.816;-0.026;2022-10-10T00:32:13;100512.47;;;21.08;38.21
69239;BME280;56349;51.816;-0.026;2022-10-10T00:34:39;100510.83;;;21.05;38.24
69239;BME280;56349;51.816;-0.026;2022-10-10T00:37:05;100511.27;;;20.77;38.27
69239;BME280;56349;51.816;-0.026;2022-10-10T00:39:31;100517.54;;;21.00;38.31
69239;BME280;56349;51.816;-0.026;2022-10-10T00:41:57;100519.78;;;20.99;38.33
69239;BME280;56349;51.816;-0.026;2022-10-10T00:44:26;100517.14;;;20.97;38.35
69239;BME280;56349;51.816;-0.026;2022-10-10T00:46:50;100514.49;;;20.96;38.37
69239;BME280;56349;51.816;-0.026;2022-10-10T00:49:18;100513.12;;;20.93;38.40
69239;BME280;56349;51.816;-0.026;2022-10-10T00:51:43;100511.66;;;20.64;38.43
69239;BME280;56349;51.816;-0.026;2022-10-10T00:54:09;100512.60;;;20.90;38.43
69239;BME280;56349;51.816;-0.026;2022-10-10T00:56:37;100512.61;;;20.88;38.46
69239;BME280;56349;51.816;-0.026;2022-10-10T00:59:02;100511.82;;;20.87;38.45
69239;BME280;56349;51.816;-0.026;2022-10-10T01:01:25;100516.68;;;20.59;38.46
69239;BME280;56349;51.816;-0.026;2022-10-10T01:03:52;100516.02;;;20.86;38.47
69239;BME280;56349;51.816;-0.026;2022-10-10T01:06:16;100513.91;;;20.85;38.47
69239;BME280;56349;51.816;-0.026;2022-10-10T01:08:42;100511.13;;;20.86;38.46
69239;BME280;56349;51.816;-0.026;2022-10-10T01:11:22;100512.79;;;20.57;38.47
69239;BME280;56349;51.816;-0.026;2022-10-10T01:13:38;100516.39;;;20.82;38.51
69239;BME280;56349;51.816;-0.026;2022-10-10T01:16:05;100515.47;;;20.82;38.50
69239;BME280;56349;51.816;-0.026;2022-10-10T01:18:32;100520.67;;;20.79;38.52
69239;BME280;56349;51.816;-0.026;2022-10-10T01:20:59;100518.26;;;20.79;38.51
69239;BME280;56349;51.816;-0.026;2022-10-10T01:25:54;100523.52;;;20.76;38.55
69239;BME280;56349;51.816;-0.026;2022-10-10T01:30:34;100520.31;;;20.46;38.59
69239;BME280;56349;51.816;-0.026;2022-10-10T01:33:06;100518.68;;;20.71;38.60
69239;BME280;56349;51.816;-0.026;2022-10-10T01:35:33;100522.04;;;20.69;38.62
69239;BME280;56349;51.816;-0.026;2022-10-10T01:37:55;100526.48;;;20.70;38.62
69239;BME280;56349;51.816;-0.026;2022-10-10T01:40:23;100524.14;;;20.69;38.61
69239;BME280;56349;51.816;-0.026;2022-10-10T01:42:47;100528.81;;;20.68;38.62
69239;BME280;56349;51.816;-0.026;2022-10-10T01:45:08;100529.26;;;20.67;38.63
69239;BME280;56349;51.816;-0.026;2022-10-10T01:47:34;100524.17;;;20.66;38.64
69239;BME280;56349;51.816;-0.026;2022-10-10T01:50:03;100524.24;;;20.66;38.63
69239;BME280;56349;51.816;-0.026;2022-10-10T01:52:34;100524.06;;;20.38;38.63
69239;BME280;56349;51.816;-0.026;2022-10-10T01:55:00;100524.71;;;20.62;38.66
69239;BME280;56349;51.816;-0.026;2022-10-10T01:57:22;100528.43;;;20.60;38.67
69239;BME280;56349;51.816;-0.026;2022-10-10T01:59:52;100529.76;;;20.58;38.69
69239;BME280;56349;51.816;-0.026;2022-10-10T02:02:15;100526.27;;;20.57;38.70
69239;BME280;56349;51.816;-0.026;2022-10-10T02:04:39;100519.38;;;20.56;38.70
69239;BME280;56349;51.816;-0.026;2022-10-10T02:07:05;100517.73;;;20.57;38.69
69239;BME280;56349;51.816;-0.026;2022-10-10T02:09:30;100513.61;;;20.57;38.68
69239;BME280;56349;51.816;-0.026;2022-10-10T02:11:53;100517.21;;;20.57;38.68
69239;BME280;56349;51.816;-0.026;2022-10-10T02:14:19;100520.57;;;20.55;38.68
69239;BME280;56349;51.816;-0.026;2022-10-10T02:16:46;100524.40;;;20.55;38.68
69239;BME280;56349;51.816;-0.026;2022-10-10T02:19:11;100524.08;;;20.53;38.70
69239;BME280;56349;51.816;-0.026;2022-10-10T02:21:34;100522.62;;;20.51;38.71
69239;BME280;56349;51.816;-0.026;2022-10-10T02:24:03;100522.39;;;20.50;38.72
69239;BME280;56349;51.816;-0.026;2022-10-10T02:26:27;100519.83;;;20.48;38.74
69239;BME280;56349;51.816;-0.026;2022-10-10T02:28:56;100517.28;;;20.47;38.75
69239;BME280;56349;51.816;-0.026;2022-10-10T02:31:23;100515.89;;;20.68;38.75
69239;BME280;56349;51.816;-0.026;2022-10-10T02:33:45;100513.79;;;20.66;38.77
69239;BME280;56349;51.816;-0.026;2022-10-10T02:36:09;100512.52;;;20.44;38.76
69239;BME280;56349;51.816;-0.026;2022-10-10T02:38:34;100514.13;;;20.43;38.76
69239;BME280;56349;51.816;-0.026;2022-10-10T02:41:01;100513.34;;;20.44;38.75
69239;BME280;56349;51.816;-0.026;2022-10-10T02:43:25;100513.42;;;20.44;38.74
69239;BME280;56349;51.816;-0.026;2022-10-10T02:45:52;100513.40;;;20.43;38.75
69239;BME280;56349;51.816;-0.026;2022-10-10T02:48:18;100507.30;;;20.42;38.75
69239;BME280;56349;51.816;-0.026;2022-10-10T02:50:44;100505.79;;;20.41;38.75
69239;BME280;56349;51.816;-0.026;2022-10-10T02:53:10;100506.34;;;20.38;38.76
69239;BME280;56349;51.816;-0.026;2022-10-10T02:55:36;100506.27;;;20.37;38.77
69239;BME280;56349;51.816;-0.026;2022-10-10T02:58:02;100507.65;;;20.36;38.78
69239;BME280;56349;51.816;-0.026;2022-10-10T03:00:28;100505.95;;;20.34;38.78
69239;BME280;56349;51.816;-0.026;2022-10-10T03:02:54;100511.18;;;20.55;38.79
69239;BME280;56349;51.816;-0.026;2022-10-10T03:05:20;100513.71;;;20.31;38.81
69239;BME280;56349;51.816;-0.026;2022-10-10T03:07:46;100513.77;;;20.30;38.82
69239;BME280;56349;51.816;-0.026;2022-10-10T03:10:12;100513.18;;;20.30;38.82
69239;BME280;56349;51.816;-0.026;2022-10-10T03:12:38;100516.08;;;20.30;38.81
69239;BME280;56349;51.816;-0.026;2022-10-10T03:15:05;100517.23;;;20.30;38.81
69239;BME280;56349;51.816;-0.026;2022-10-10T03:17:30;100520.16;;;20.29;38.81
69239;BME280;56349;51.816;-0.026;2022-10-10T03:19:56;100521.68;;;20.28;38.81
69239;BME280;56349;51.816;-0.026;2022-10-10T03:22:22;100522.68;;;20.49;38.82
69239;BME280;56349;51.816;-0.026;2022-10-10T03:24:47;100521.98;;;20.48;38.82
69239;BME280;56349;51.816;-0.026;2022-10-10T03:27:14;100524.12;;;20.24;38.83
69239;BME280;56349;51.816;-0.026;2022-10-10T03:29:38;100530.45;;;20.24;38.85
69239;BME280;56349;51.816;-0.026;2022-10-10T03:32:04;100531.86;;;20.23;38.88
69239;BME280;56349;51.816;-0.026;2022-10-10T03:34:30;100535.26;;;20.23;38.94
69239;BME280;56349;51.816;-0.026;2022-10-10T03:36:57;100538.10;;;20.69;39.01
69239;BME280;56349;51.816;-0.026;2022-10-10T03:39:23;100542.39;;;20.32;39.01
69239;BME280;56349;51.816;-0.026;2022-10-10T03:41:48;100546.65;;;20.86;38.98
69239;BME280;56349;51.816;-0.026;2022-10-10T03:44:14;100544.69;;;20.51;38.93
69239;BME280;56349;51.816;-0.026;2022-10-10T03:46:40;100539.67;;;20.63;38.86
69239;BME280;56349;51.816;-0.026;2022-10-10T03:49:06;100537.19;;;20.78;38.74
69239;BME280;56349;51.816;-0.026;2022-10-10T03:51:33;100532.15;;;20.97;38.56
69239;BME280;56349;51.816;-0.026;2022-10-10T03:53:59;100534.10;;;20.84;38.35
69239;BME280;56349;51.816;-0.026;2022-10-10T03:56:25;100532.66;;;20.98;38.13
69239;BME280;56349;51.816;-0.026;2022-10-10T03:58:50;100530.75;;;21.09;37.92
69239;BME280;56349;51.816;-0.026;2022-10-10T04:01:16;100526.85;;;21.44;37.74
69239;BME280;56349;51.816;-0.026;2022-10-10T04:03:42;100524.06;;;21.01;37.58
69239;BME280;56349;51.816;-0.026;2022-10-10T04:06:08;100527.82;;;21.26;37.46
69239;BME280;56349;51.816;-0.026;2022-10-10T04:08:34;100533.88;;;21.26;37.38
69239;BME280;56349;51.816;-0.026;2022-10-10T04:11:00;100533.28;;;21.02;37.34
69239;BME280;56349;51.816;-0.026;2022-10-10T04:13:26;100533.09;;;20.99;37.28
69239;BME280;56349;51.816;-0.026;2022-10-10T04:15:54;100538.17;;;21.18;37.24
69239;BME280;56349;51.816;-0.026;2022-10-10T04:18:18;100543.05;;;21.12;37.25
69239;BME280;56349;51.816;-0.026;2022-10-10T04:20:43;100550.11;;;21.07;37.26
69239;BME280;56349;51.816;-0.026;2022-10-10T04:23:09;100553.61;;;21.28;37.29
69239;BME280;56349;51.816;-0.026;2022-10-10T04:25:35;100561.92;;;20.96;37.30
69239;BME280;56349;51.816;-0.026;2022-10-10T04:28:01;100560.25;;;20.90;37.33
69239;BME280;56349;51.816;-0.026;2022-10-10T04:30:31;100561.12;;;20.87;37.34
69239;BME280;56349;51.816;-0.026;2022-10-10T04:32:53;100565.09;;;20.82;37.38
69239;BME280;56349;51.816;-0.026;2022-10-10T04:35:19;100567.49;;;21.03;37.44
69239;BME280;56349;51.816;-0.026;2022-10-10T04:37:45;100562.26;;;20.98;37.46
69239;BME280;56349;51.816;-0.026;2022-10-10T04:40:11;100567.41;;;20.92;37.51
69239;BME280;56349;51.816;-0.026;2022-10-10T04:42:37;100577.53;;;20.58;37.57
69239;BME280;56349;51.816;-0.026;2022-10-10T04:45:03;100586.68;;;20.80;37.63
69239;BME280;56349;51.816;-0.026;2022-10-10T04:47:28;100595.25;;;20.76;37.67
69239;BME280;56349;51.816;-0.026;2022-10-10T04:49:55;100592.79;;;20.72;37.70
69239;BME280;56349;51.816;-0.026;2022-10-10T04:52:21;100597.81;;;20.70;37.73
69239;BME280;56349;51.816;-0.026;2022-10-10T04:54:46;100610.21;;;20.39;37.77
69239;BME280;56349;51.816;-0.026;2022-10-10T04:57:12;100608.03;;;20.35;37.81
69239;BME280;56349;51.816;-0.026;2022-10-10T04:59:38;100610.59;;;20.59;37.84
69239;BME280;56349;51.816;-0.026;2022-10-10T05:02:04;100617.24;;;20.78;37.87
69239;BME280;56349;51.816;-0.026;2022-10-10T05:04:30;100617.23;;;20.52;37.91
69239;BME280;56349;51.816;-0.026;2022-10-10T05:06:55;100617.62;;;20.49;37.96
69239;BME280;56349;51.816;-0.026;2022-10-10T05:09:22;100619.39;;;20.72;37.93
69239;BME280;56349;51.816;-0.026;2022-10-10T05:11:48;100618.89;;;20.46;37.98
69239;BME280;56349;51.816;-0.026;2022-10-10T05:14:14;100623.12;;;20.42;38.02
69239;BME280;56349;51.816;-0.026;2022-10-10T05:16:40;100620.61;;;20.37;38.07
69239;BME280;56349;51.816;-0.026;2022-10-10T05:19:06;100624.36;;;20.33;38.12
69239;BME280;56349;51.816;-0.026;2022-10-10T05:21:32;100627.85;;;20.31;38.15
69239;BME280;56349;51.816;-0.026;2022-10-10T05:23:58;100631.03;;;20.27;38.20
69239;BME280;56349;51.816;-0.026;2022-10-10T05:26:24;100633.20;;;20.27;38.20
69239;BME280;56349;51.816;-0.026;2022-10-10T05:28:50;100629.27;;;20.47;38.23
69239;BME280;56349;51.816;-0.026;2022-10-10T05:31:16;100628.22;;;20.22;38.27
69239;BME280;56349;51.816;-0.026;2022-10-10T05:33:42;100639.78;;;20.21;38.27
69239;BME280;56349;51.816;-0.026;2022-10-10T05:36:11;100640.49;;;20.19;38.29
69239;BME280;56349;51.816;-0.026;2022-10-10T05:38:34;100642.15;;;20.63;38.31
69239;BME280;56349;51.816;-0.026;2022-10-10T05:41:00;100650.91;;;20.19;38.30
69239;BME280;56349;51.816;-0.026;2022-10-10T05:43:26;100670.69;;;20.64;38.31
69239;BME280;56349;51.816;-0.026;2022-10-10T05:45:51;100669.65;;;20.39;38.33
69239;BME280;56349;51.816;-0.026;2022-10-10T05:48:17;100674.03;;;20.15;38.34
69239;BME280;56349;51.816;-0.026;2022-10-10T05:50:47;100677.80;;;20.12;38.38
69239;BME280;56349;51.816;-0.026;2022-10-10T05:53:08;100679.12;;;20.10;38.42
69239;BME280;56349;51.816;-0.026;2022-10-10T05:55:34;100686.09;;;20.32;38.43
69239;BME280;56349;51.816;-0.026;2022-10-10T05:58:00;100692.79;;;20.08;38.45
69239;BME280;56349;51.816;-0.026;2022-10-10T06:00:26;100696.49;;;20.28;38.48
69239;BME280;56349;51.816;-0.026;2022-10-10T06:02:52;100694.32;;;20.25;38.51
69239;BME280;56349;51.816;-0.026;2022-10-10T06:05:18;100701.64;;;20.24;38.54
69239;BME280;56349;51.816;-0.026;2022-10-10T06:07:44;100710.76;;;20.24;38.54
69239;BME280;56349;51.816;-0.026;2022-10-10T06:10:11;100723.02;;;20.43;38.58
69239;BME280;56349;51.816;-0.026;2022-10-10T06:12:37;100728.34;;;20.43;38.59
69239;BME280;56349;51.816;-0.026;2022-10-10T06:15:03;100729.12;;;20.44;38.58
69239;BME280;56349;51.816;-0.026;2022-10-10T06:17:28;100734.21;;;20.42;38.60
69239;BME280;56349;51.816;-0.026;2022-10-10T06:19:54;100744.61;;;20.41;38.61
69239;BME280;56349;51.816;-0.026;2022-10-10T06:22:20;100756.25;;;19.95;38.63
69239;BME280;56349;51.816;-0.026;2022-10-10T06:24:46;100760.82;;;19.95;38.63
69239;BME280;56349;51.816;-0.026;2022-10-10T06:27:12;100771.88;;;20.39;38.63
69239;BME280;56349;51.816;-0.026;2022-10-10T06:29:38;100792.68;;;20.16;38.65
69239;BME280;56349;51.816;-0.026;2022-10-10T06:32:04;100801.80;;;20.14;38.66
69239;BME280;56349;51.816;-0.026;2022-10-10T06:34:30;100810.90;;;20.14;38.66
69239;BME280;56349;51.816;-0.026;2022-10-10T06:36:57;100823.45;;;20.13;38.67
69239;BME280;56349;51.816;-0.026;2022-10-10T06:39:23;100828.62;;;20.12;38.69
69239;BME280;56349;51.816;-0.026;2022-10-10T06:41:49;100838.15;;;20.34;38.68
69239;BME280;56349;51.816;-0.026;2022-10-10T06:44:16;100841.90;;;20.10;38.70
69239;BME280;56349;51.816;-0.026;2022-10-10T06:46:40;100841.23;;;20.08;38.73
69239;BME280;56349;51.816;-0.026;2022-10-10T06:49:06;100837.82;;;19.85;38.73
69239;BME280;56349;51.816;-0.026;2022-10-10T06:51:31;100840.54;;;20.07;38.74
69239;BME280;56349;51.816;-0.026;2022-10-10T06:53:57;100842.17;;;19.83;38.74
69239;BME280;56349;51.816;-0.026;2022-10-10T06:56:22;100851.10;;;20.27;38.77
69239;BME280;56349;51.816;-0.026;2022-10-10T06:58:47;100862.05;;;20.27;38.77
69239;BME280;56349;51.816;-0.026;2022-10-10T07:01:13;100869.61;;;19.83;38.77
69239;BME280;56349;51.816;-0.026;2022-10-10T07:03:38;100875.25;;;20.27;38.77
69239;BME280;56349;51.816;-0.026;2022-10-10T07:06:08;100881.91;;;20.26;38.78
69239;BME280;56349;51.816;-0.026;2022-10-10T07:08:29;100898.98;;;20.02;38.81
69239;BME280;56349;51.816;-0.026;2022-10-10T07:10:55;100909.06;;;19.81;38.83
69239;BME280;56349;51.816;-0.026;2022-10-10T07:13:20;100913.33;;;20.27;38.88
69239;BME280;56349;51.816;-0.026;2022-10-10T07:15:45;100918.00;;;19.85;38.98
69239;BME280;56349;51.816;-0.026;2022-10-10T07:18:11;100921.55;;;20.31;39.16
69239;BME280;56349;51.816;-0.026;2022-10-10T07:20:38;100923.70;;;20.10;39.41
69239;BME280;56349;51.816;-0.026;2022-10-10T07:23:04;100927.43;;;20.37;39.70
69239;BME280;56349;51.816;-0.026;2022-10-10T07:25:29;100932.61;;;19.99;39.95
69239;BME280;56349;51.816;-0.026;2022-10-10T07:27:54;100934.79;;;20.55;40.00
69239;BME280;56349;51.816;-0.026;2022-10-10T07:30:19;100938.00;;;20.27;40.07
69239;BME280;56349;51.816;-0.026;2022-10-10T07:32:45;100947.44;;;20.47;40.03
69239;BME280;56349;51.816;-0.026;2022-10-10T07:35:11;100953.97;;;20.68;39.96
69239;BME280;56349;51.816;-0.026;2022-10-10T07:37:38;100955.97;;;20.88;39.81
69239;BME280;56349;51.816;-0.026;2022-10-10T07:40:03;100951.92;;;20.84;39.58
69239;BME280;56349;51.816;-0.026;2022-10-10T07:42:28;100946.70;;;21.09;39.34
69239;BME280;56349;51.816;-0.026;2022-10-10T07:44:54;100948.35;;;21.32;39.08
69239;BME280;56349;51.816;-0.026;2022-10-10T07:47:20;100958.29;;;21.34;38.84
69239;BME280;56349;51.816;-0.026;2022-10-10T07:49:46;100969.01;;;21.35;38.58
69239;BME280;56349;51.816;-0.026;2022-10-10T07:52:12;100971.06;;;21.58;38.30
69239;BME280;56349;51.816;-0.026;2022-10-10T07:54:38;100983.49;;;21.53;38.03
69239;BME280;56349;51.816;-0.026;2022-10-10T07:57:04;100976.79;;;21.73;37.76
69239;BME280;56349;51.816;-0.026;2022-10-10T07:59:30;100983.86;;;21.92;37.52
69239;BME280;56349;51.816;-0.026;2022-10-10T08:01:56;100980.32;;;22.09;37.26
69239;BME280;56349;51.816;-0.026;2022-10-10T08:04:22;100983.84;;;22.26;37.03
69239;BME280;56349;51.816;-0.026;2022-10-10T08:06:47;100987.91;;;22.43;36.78
69239;BME280;56349;51.816;-0.026;2022-10-10T08:09:14;100981.10;;;22.59;36.55
69239;BME280;56349;51.816;-0.026;2022-10-10T08:11:39;100988.89;;;22.74;36.32
69239;BME280;56349;51.816;-0.026;2022-10-10T08:14:09;100995.76;;;22.65;36.17
69239;BME280;56349;51.816;-0.026;2022-10-10T08:16:30;101000.52;;;22.48;36.00
69239;BME280;56349;51.816;-0.026;2022-10-10T08:18:55;101003.62;;;22.59;35.80
69239;BME280;56349;51.816;-0.026;2022-10-10T08:21:21;101008.72;;;22.98;35.60
69239;BME280;56349;51.816;-0.026;2022-10-10T08:23:45;101016.34;;;22.81;35.41
69239;BME280;56349;51.816;-0.026;2022-10-10T08:26:13;101018.72;;;22.87;35.28
69239;BME280;56349;51.816;-0.026;2022-10-10T08:28:38;101025.23;;;22.92;35.15
69239;BME280;56349;51.816;-0.026;2022-10-10T08:31:04;101028.07;;;23.00;34.98
69239;BME280;56349;51.816;-0.026;2022-10-10T08:33:29;101034.02;;;23.06;34.86
69239;BME280;56349;51.816;-0.026;2022-10-10T08:35:56;101037.44;;;23.12;34.87
69239;BME280;56349;51.816;-0.026;2022-10-10T08:38:20;101042.34;;;23.21;34.85
69239;BME280;56349;51.816;-0.026;2022-10-10T08:40:48;101048.84;;;23.26;34.82
69239;BME280;56349;51.816;-0.026;2022-10-10T08:43:17;101054.98;;;23.08;34.73
69239;BME280;56349;51.816;-0.026;2022-10-10T08:45:38;101059.01;;;23.34;34.63
69239;BME280;56349;51.816;-0.026;2022-10-10T08:48:06;101063.85;;;23.10;34.59
69239;BME280;56349;51.816;-0.026;2022-10-10T08:50:32;101071.52;;;22.88;34.54
69239;BME280;56349;51.816;-0.026;2022-10-10T08:52:57;101077.79;;;23.42;34.39
69239;BME280;56349;51.816;-0.026;2022-10-10T08:55:23;101085.97;;;23.44;34.31
69239;BME280;56349;51.816;-0.026;2022-10-10T08:57:49;101090.21;;;23.45;34.26
69239;BME280;56349;51.816;-0.026;2022-10-10T09:00:15;101090.70;;;23.21;34.24
69239;BME280;56349;51.816;-0.026;2022-10-10T09:02:38;101092.87;;;23.44;34.17
69239;BME280;56349;51.816;-0.026;2022-10-10T09:05:01;101092.89;;;23.22;34.15
69239;BME280;56349;51.816;-0.026;2022-10-10T09:07:42;101095.64;;;23.00;34.17
69239;BME280;56349;51.816;-0.026;2022-10-10T09:09:59;101095.32;;;23.02;34.17
69239;BME280;56349;51.816;-0.026;2022-10-10T09:12:24;101095.63;;;23.08;34.11
69239;BME280;56349;51.816;-0.026;2022-10-10T09:14:46;101100.61;;;23.09;34.07
69239;BME280;56349;51.816;-0.026;2022-10-10T09:17:16;101102.72;;;22.98;33.09
69239;BME280;56349;51.816;-0.026;2022-10-10T09:19:44;101104.81;;;23.28;32.54
69239;BME280;56349;51.816;-0.026;2022-10-10T09:22:04;101113.04;;;22.88;32.28
69239;BME280;56349;51.816;-0.026;2022-10-10T09:24:29;101120.32;;;22.73;32.00
69239;BME280;56349;51.816;-0.026;2022-10-10T09:26:53;101126.81;;;22.80;31.86
69239;BME280;56349;51.816;-0.026;2022-10-10T09:29:24;101126.92;;;22.65;31.75
69239;BME280;56349;51.816;-0.026;2022-10-10T09:31:44;101134.81;;;22.51;31.54
69239;BME280;56349;51.816;-0.026;2022-10-10T09:34:14;101141.22;;;22.38;31.44
69239;BME280;56349;51.816;-0.026;2022-10-10T09:36:36;101143.77;;;22.56;31.36
69239;BME280;56349;51.816;-0.026;2022-10-10T09:39:02;101144.93;;;22.28;31.93
69239;BME280;56349;51.816;-0.026;2022-10-10T09:41:27;101144.56;;;22.34;32.50
69239;BME280;56349;51.816;-0.026;2022-10-10T09:43:54;101150.37;;;22.39;32.74
69239;BME280;56349;51.816;-0.026;2022-10-10T09:46:14;101154.00;;;22.52;32.79
69239;BME280;56349;51.816;-0.026;2022-10-10T09:48:41;101157.76;;;22.85;32.85
69239;BME280;56349;51.816;-0.026;2022-10-10T09:51:11;101161.05;;;22.63;32.87
69239;BME280;56349;51.816;-0.026;2022-10-10T09:53:32;101168.41;;;22.71;32.88
69239;BME280;56349;51.816;-0.026;2022-10-10T09:55:59;101170.44;;;22.75;32.88
69239;BME280;56349;51.816;-0.026;2022-10-10T09:58:29;101169.17;;;22.81;32.85
69239;BME280;56349;51.816;-0.026;2022-10-10T10:00:49;101168.49;;;22.64;32.81
69239;BME280;56349;51.816;-0.026;2022-10-10T10:03:16;101172.45;;;22.90;32.81
69239;BME280;56349;51.816;-0.026;2022-10-10T10:05:44;101177.80;;;22.95;32.75
69239;BME280;56349;51.816;-0.026;2022-10-10T10:10:34;101171.13;;;23.04;32.67
69239;BME280;56349;51.816;-0.026;2022-10-10T10:12:58;101174.03;;;23.09;32.61
69239;BME280;56349;51.816;-0.026;2022-10-10T10:15:24;101176.17;;;23.12;32.57
69239;BME280;56349;51.816;-0.026;2022-10-10T10:22:45;101185.33;;;22.88;32.58
69239;BME280;56349;51.816;-0.026;2022-10-10T10:27:31;101191.95;;;23.18;32.50
69239;BME280;56349;51.816;-0.026;2022-10-10T10:29:57;101199.50;;;22.95;32.49
69239;BME280;56349;51.816;-0.026;2022-10-10T10:32:33;101213.29;;;23.18;32.47
69239;BME280;56349;51.816;-0.026;2022-10-10T10:34:59;101213.55;;;22.79;32.43
69239;BME280;56349;51.816;-0.026;2022-10-10T10:37:19;101222.86;;;23.01;32.41
69239;BME280;56349;51.816;-0.026;2022-10-10T10:39:47;101227.48;;;22.80;32.39
69239;BME280;56349;51.816;-0.026;2022-10-10T10:42:14;101231.31;;;23.01;32.39
69239;BME280;56349;51.816;-0.026;2022-10-10T10:44:37;101234.56;;;23.02;32.37
69239;BME280;56349;51.816;-0.026;2022-10-10T10:47:05;101233.00;;;23.05;32.35
69239;BME280;56349;51.816;-0.026;2022-10-10T10:49:28;101241.20;;;23.25;32.35
69239;BME280;56349;51.816;-0.026;2022-10-10T10:54:24;101250.54;;;23.21;32.38
69239;BME280;56349;51.816;-0.026;2022-10-10T10:56:43;101256.44;;;23.03;32.33
69239;BME280;56349;51.816;-0.026;2022-10-10T10:59:18;101259.53;;;23.02;32.32
69239;BME280;56349;51.816;-0.026;2022-10-10T11:01:35;101261.68;;;23.05;32.29
69239;BME280;56349;51.816;-0.026;2022-10-10T11:04:00;101261.81;;;23.09;32.24
69239;BME280;56349;51.816;-0.026;2022-10-10T11:06:33;101264.48;;;23.11;32.21
69239;BME280;56349;51.816;-0.026;2022-10-10T11:08:56;101267.49;;;22.89;32.19
69239;BME280;56349;51.816;-0.026;2022-10-10T11:11:25;101271.21;;;22.89;32.18
69239;BME280;56349;51.816;-0.026;2022-10-10T11:13:40;101273.03;;;23.35;32.16
69239;BME280;56349;51.816;-0.026;2022-10-10T11:16:09;101275.57;;;23.35;32.13
69239;BME280;56349;51.816;-0.026;2022-10-10T11:18:32;101277.45;;;23.37;32.07
69239;BME280;56349;51.816;-0.026;2022-10-10T11:20:59;101283.11;;;22.92;32.00
69239;BME280;56349;51.816;-0.026;2022-10-10T11:23:23;101285.59;;;22.91;31.91
69239;BME280;56349;51.816;-0.026;2022-10-10T11:25:49;101289.89;;;23.29;31.87
69239;BME280;56349;51.816;-0.026;2022-10-10T11:28:15;101291.96;;;22.99;31.86
69239;BME280;56349;51.816;-0.026;2022-10-10T11:30:42;101294.75;;;23.09;31.88
69239;BME280;56349;51.816;-0.026;2022-10-10T11:33:09;101298.13;;;23.00;31.88
69239;BME280;56349;51.816;-0.026;2022-10-10T11:35:33;101300.13;;;23.11;31.95
69239;BME280;56349;51.816;-0.026;2022-10-10T11:37:58;101295.42;;;22.93;32.07
69239;BME280;56349;51.816;-0.026;2022-10-10T11:40:29;101294.98;;;22.71;32.25
69239;BME280;56349;51.816;-0.026;2022-10-10T11:42:51;101292.66;;;22.69;32.47
69239;BME280;56349;51.816;-0.026;2022-10-10T11:45:14;101293.16;;;22.49;32.67
69239;BME280;56349;51.816;-0.026;2022-10-10T11:47:39;101292.09;;;22.08;32.84
69239;BME280;56349;51.816;-0.026;2022-10-10T11:50:09;101295.52;;;22.13;33.01
69239;BME280;56349;51.816;-0.026;2022-10-10T11:52:30;101293.36;;;21.93;33.24
69239;BME280;56349;51.816;-0.026;2022-10-10T11:55:00;101300.62;;;21.76;33.42
69239;BME280;56349;51.816;-0.026;2022-10-10T11:57:25;101297.60;;;22.08;33.62
69239;BME280;56349;51.816;-0.026;2022-10-10T11:59:49;101297.46;;;21.94;33.80
69239;BME280;56349;51.816;-0.026;2022-10-10T12:02:16;101299.91;;;21.77;34.00
69239;BME280;56349;51.816;-0.026;2022-10-10T12:04:36;101301.96;;;21.64;34.16
69239;BME280;56349;51.816;-0.026;2022-10-10T12:07:04;101305.28;;;21.28;34.32
69239;BME280;56349;51.816;-0.026;2022-10-10T12:09:31;101311.07;;;21.36;34.51
69239;BME280;56349;51.816;-0.026;2022-10-10T12:11:57;101311.59;;;21.46;34.68
69239;BME280;56349;51.816;-0.026;2022-10-10T12:14:21;101319.06;;;21.15;34.81
69239;BME280;56349;51.816;-0.026;2022-10-10T12:16:44;101321.56;;;21.28;34.96
69239;BME280;56349;51.816;-0.026;2022-10-10T12:19:16;101323.33;;;20.97;35.08
69239;BME280;56349;51.816;-0.026;2022-10-10T12:24:11;101329.27;;;20.80;35.35
69239;BME280;56349;51.816;-0.026;2022-10-10T12:28:57;101333.17;;;20.92;35.54
69239;BME280;56349;51.816;-0.026;2022-10-10T12:38:34;101343.98;;;20.52;36.12
69239;BME280;56349;51.816;-0.026;2022-10-10T12:41:06;101345.62;;;20.81;36.16
69239;BME280;56349;51.816;-0.026;2022-10-10T12:45:55;101348.67;;;20.80;36.14
69239;BME280;56349;51.816;-0.026;2022-10-10T12:48:18;101349.64;;;21.14;36.10
69239;BME280;56349;51.816;-0.026;2022-10-10T12:50:43;101352.58;;;21.07;36.02
69239;BME280;56349;51.816;-0.026;2022-10-10T12:53:14;101351.99;;;21.44;35.91
69239;BME280;56349;51.816;-0.026;2022-10-10T12:55:39;101353.16;;;21.37;35.80
69239;BME280;56349;51.816;-0.026;2022-10-10T12:58:01;101357.43;;;21.55;35.66
69239;BME280;56349;51.816;-0.026;2022-10-10T13:00:26;101358.50;;;21.74;35.49
69239;BME280;56349;51.816;-0.026;2022-10-10T13:02:53;101367.28;;;21.70;35.32